EHFS

Vlissingen

Vlissingen, The Netherlands
METAR EHFS 172225Z AUTO 22009KT 9999 NCD 19/13 Q1018 W///H///
Observed Flight Rules
Jul-17 @ 22:25 UTC (53 minutes ago) Visual Flight Rules
Wind Visibility Clouds
220° at 9 knots 10,000+ meters
  • Clear skies
Temperatures Readings
Current 19°C / 66°F
Dewpoint 13°C / 55°F
Humidity 68%
Altimeter 30.06" Hg
Pressure 1018 hPa
Elevation 32
METAR EHFS 172225Z AUTO 22009KT 9999 NCD 19/13 Q1018 W///H///
Observed Flight Rules
Jul-17 @ 22:25 UTC
(53 minutes ago)
VFR
Wind Visibility
220° at 9 knots 10,000+ meters
Clouds
  • Clear skies
Temperature Dewpoint
19°C / 66°F 13°C / 55°F
Humidity Altimeter Pressure
68% 30.06" Hg 1018 hPa